Main page
METAR-TAF:

METAR-TAF

Airports :

Langkawi International Airport

Langkawi, Malaysia

latitude: 06-20N, longitude: 099-44E, elevation: 8 m

Current weather observation

The report was made 40 minutes ago, at 09:00 UTC
Wind 9 kt from the North/Northeast, varying between North/Northwest and East
Temperature 35°C
Humidity 53%
Pressure 1007 hPa
Visibility 10 km or more
Scattered clouds at a height of 2000 ft

METAR: WMKL 240900Z 03009KT 340V090 9999 SCT020 35/24 Q1007

Time: 17:40 (09:40 UTC)

Forecast

The report was made 4 hours and 40 minutes ago, at 05:00 UTC
Forecast valid from 24 at 06 UTC to 25 at 06 UTC
Wind 10 kt from the East/Northeast
Visibility 10 km or more
Few clouds at a height of 2200 ft
Becoming
from 24 at 10 UTC to 24 at 12 UTC
Wind 6 kt from the Northeast
Few clouds at a height of 2600 ft

TAF: WMKL 240500Z 2406/2506 06010KT 9999 FEW022 BECMG 2410/2412 04006KT FEW026

Weather observations and forecasts of more than 4000 airports (METAR and TAF reports).

The available stations are represented by yellow and red dots on the map.

Hover mouse over dot to see the name of the station.

Then click to see weather observations and forecasts.

To change the map : click on the green buttons with a black cross to zoom in, on the green button with a dash to zoom out, or on the green arrows for adjacent maps.


METAR-TAF: